sensor_id;sensor_type;location;lat;lon;timestamp;pressure;altitude;pressure_sealevel;temperature;humidity
59391;BME280;53405;57.012;40.984;2023-02-15T00:02:20;100146.09;;;-1.95;83.63
59391;BME280;53405;57.012;40.984;2023-02-15T00:05:08;100144.00;;;-2.03;81.78
59391;BME280;53405;57.012;40.984;2023-02-15T00:07:56;100145.47;;;-2.13;81.61
59391;BME280;53405;57.012;40.984;2023-02-15T00:10:43;100142.97;;;-2.15;82.95
59391;BME280;53405;57.012;40.984;2023-02-15T00:13:31;100142.25;;;-2.17;82.17
59391;BME280;53405;57.012;40.984;2023-02-15T00:16:18;100142.78;;;-2.12;82.80
59391;BME280;53405;57.012;40.984;2023-02-15T00:19:06;100146.75;;;-2.06;83.17
59391;BME280;53405;57.012;40.984;2023-02-15T00:21:55;100134.41;;;-2.01;82.85
59391;BME280;53405;57.012;40.984;2023-02-15T00:24:42;100141.69;;;-1.93;81.31
59391;BME280;53405;57.012;40.984;2023-02-15T00:27:30;100143.53;;;-1.95;81.80
59391;BME280;53405;57.012;40.984;2023-02-15T00:30:18;100150.78;;;-2.02;82.01
59391;BME280;53405;57.012;40.984;2023-02-15T00:33:05;100140.94;;;-2.10;81.78
59391;BME280;53405;57.012;40.984;2023-02-15T00:35:57;100133.69;;;-2.17;81.88
59391;BME280;53405;57.012;40.984;2023-02-15T00:38:46;100142.88;;;-2.13;82.74
59391;BME280;53405;57.012;40.984;2023-02-15T00:41:33;100150.78;;;-2.02;82.53
59391;BME280;53405;57.012;40.984;2023-02-15T00:44:21;100154.78;;;-2.11;83.24
59391;BME280;53405;57.012;40.984;2023-02-15T00:47:08;100142.88;;;-2.13;82.95
59391;BME280;53405;57.012;40.984;2023-02-15T00:49:56;100145.63;;;-2.02;82.61
59391;BME280;53405;57.012;40.984;2023-02-15T00:52:43;100148.97;;;-2.00;82.38
59391;BME280;53405;57.012;40.984;2023-02-15T00:55:31;100153.28;;;-2.01;83.34
59391;BME280;53405;57.012;40.984;2023-02-15T00:58:18;100142.31;;;-1.90;82.08
59391;BME280;53405;57.012;40.984;2023-02-15T01:01:15;100156.88;;;-1.89;83.12
59391;BME280;53405;57.012;40.984;2023-02-15T01:04:04;100156.97;;;-1.90;82.54
59391;BME280;53405;57.012;40.984;2023-02-15T01:06:52;100161.69;;;-1.97;83.09
59391;BME280;53405;57.012;40.984;2023-02-15T01:09:39;100150.06;;;-2.04;82.79
59391;BME280;53405;57.012;40.984;2023-02-15T01:12:27;100156.81;;;-2.02;82.37
59391;BME280;53405;57.012;40.984;2023-02-15T01:15:14;100153.28;;;-2.01;83.10
59391;BME280;53405;57.012;40.984;2023-02-15T01:18:02;100164.16;;;-2.10;83.74
59391;BME280;53405;57.012;40.984;2023-02-15T01:20:50;100162.25;;;-2.06;82.54
59391;BME280;53405;57.012;40.984;2023-02-15T01:23:37;100164.06;;;-2.08;83.22
59391;BME280;53405;57.012;40.984;2023-02-15T01:26:25;100153.75;;;-2.08;82.74
59391;BME280;53405;57.012;40.984;2023-02-15T01:29:12;100170.06;;;-2.08;83.26
59391;BME280;53405;57.012;40.984;2023-02-15T01:32:02;100170.81;;;-2.06;82.67
59391;BME280;53405;57.012;40.984;2023-02-15T01:34:49;100174.56;;;-2.11;82.51
59391;BME280;53405;57.012;40.984;2023-02-15T01:37:39;100176.16;;;-2.23;82.78
59391;BME280;53405;57.012;40.984;2023-02-15T01:40:26;100176.16;;;-2.23;82.99
59391;BME280;53405;57.012;40.984;2023-02-15T01:43:14;100180.66;;;-2.27;83.39
59391;BME280;53405;57.012;40.984;2023-02-15T01:46:01;100188.50;;;-2.14;83.82
59391;BME280;53405;57.012;40.984;2023-02-15T01:48:59;100181.22;;;-2.22;83.20
59391;BME280;53405;57.012;40.984;2023-02-15T01:51:49;100176.97;;;-2.23;83.31
59391;BME280;53405;57.012;40.984;2023-02-15T01:54:38;100183.16;;;-2.25;82.80
59391;BME280;53405;57.012;40.984;2023-02-15T01:57:27;100179.63;;;-2.39;83.44
59391;BME280;53405;57.012;40.984;2023-02-15T02:00:16;100183.03;;;-2.38;83.92
59391;BME280;53405;57.012;40.984;2023-02-15T02:03:07;100179.56;;;-2.23;84.00
59391;BME280;53405;57.012;40.984;2023-02-15T02:05:54;100183.53;;;-2.17;83.35
59391;BME280;53405;57.012;40.984;2023-02-15T02:08:42;100188.59;;;-2.15;82.46
59391;BME280;53405;57.012;40.984;2023-02-15T02:11:31;100176.59;;;-2.31;83.44
59391;BME280;53405;57.012;40.984;2023-02-15T02:14:19;100186.09;;;-2.31;83.99
59391;BME280;53405;57.012;40.984;2023-02-15T02:17:16;100185.66;;;-2.24;83.95
59391;BME280;53405;57.012;40.984;2023-02-15T02:26:47;100208.28;;;-2.29;83.95
59391;BME280;53405;57.012;40.984;2023-02-15T02:42:13;100203.25;;;-2.61;85.44
59391;BME280;53405;57.012;40.984;2023-02-15T02:45:08;100207.91;;;-2.51;85.73
59391;BME280;53405;57.012;40.984;2023-02-15T02:48:00;100211.47;;;-2.54;86.16
59391;BME280;53405;57.012;40.984;2023-02-15T02:50:49;100203.56;;;-2.51;86.62
59391;BME280;53405;57.012;40.984;2023-02-15T02:53:36;100211.19;;;-2.49;87.41
59391;BME280;53405;57.012;40.984;2023-02-15T02:56:31;100204.97;;;-2.45;87.48
59391;BME280;53405;57.012;40.984;2023-02-15T02:59:29;100218.41;;;-2.40;86.98
59391;BME280;53405;57.012;40.984;2023-02-15T03:02:26;100198.28;;;-2.64;86.78
59391;BME280;53405;57.012;40.984;2023-02-15T03:05:17;100222.38;;;-2.49;87.67
59391;BME280;53405;57.012;40.984;2023-02-15T03:08:07;100226.31;;;-2.43;87.74
59391;BME280;53405;57.012;40.984;2023-02-15T03:10:59;100202.63;;;-2.64;87.04
59391;BME280;53405;57.012;40.984;2023-02-15T03:13:48;100221.59;;;-2.51;87.19
59391;BME280;53405;57.012;40.984;2023-02-15T03:16:38;100225.94;;;-2.51;88.01
59391;BME280;53405;57.012;40.984;2023-02-15T03:19:29;100234.59;;;-2.52;87.86
59391;BME280;53405;57.012;40.984;2023-02-15T03:22:22;100229.78;;;-2.59;87.34
59391;BME280;53405;57.012;40.984;2023-02-15T03:25:19;100225.38;;;-2.57;88.16
59391;BME280;53405;57.012;40.984;2023-02-15T03:28:12;100234.84;;;-2.57;89.21
59391;BME280;53405;57.012;40.984;2023-02-15T03:31:04;100232.50;;;-2.46;88.72
59391;BME280;53405;57.012;40.984;2023-02-15T03:34:00;100236.38;;;-2.39;87.25
59391;BME280;53405;57.012;40.984;2023-02-15T03:40:02;100244.47;;;-2.45;87.49
59391;BME280;53405;57.012;40.984;2023-02-15T03:43:28;100248.91;;;-2.47;86.24
59391;BME280;53405;57.012;40.984;2023-02-15T03:49:12;100242.97;;;-2.63;87.12
59391;BME280;53405;57.012;40.984;2023-02-15T03:52:03;100245.53;;;-2.63;86.74
59391;BME280;53405;57.012;40.984;2023-02-15T03:54:52;100248.13;;;-2.63;86.86
59391;BME280;53405;57.012;40.984;2023-02-15T03:57:40;100257.88;;;-2.54;87.24
59391;BME280;53405;57.012;40.984;2023-02-15T04:00:57;100255.75;;;-2.62;86.95
59391;BME280;53405;57.012;40.984;2023-02-15T04:04:12;100246.72;;;-2.69;86.60
59391;BME280;53405;57.012;40.984;2023-02-15T04:07:04;100261.84;;;-2.63;86.49
59391;BME280;53405;57.012;40.984;2023-02-15T04:09:52;100267.00;;;-2.63;86.58
59391;BME280;53405;57.012;40.984;2023-02-15T04:12:58;100268.84;;;-2.65;85.76
59391;BME280;53405;57.012;40.984;2023-02-15T04:15:46;100271.06;;;-2.75;85.95
59391;BME280;53405;57.012;40.984;2023-02-15T04:18:55;100277.75;;;-2.70;85.69
59391;BME280;53405;57.012;40.984;2023-02-15T04:22:01;100278.81;;;-2.75;85.81
59391;BME280;53405;57.012;40.984;2023-02-15T04:25:07;100293.94;;;-2.68;86.14
59391;BME280;53405;57.012;40.984;2023-02-15T04:28:00;100285.81;;;-2.77;86.05
59391;BME280;53405;57.012;40.984;2023-02-15T04:30:48;100284.06;;;-2.76;85.21
59391;BME280;53405;57.012;40.984;2023-02-15T04:33:36;100289.28;;;-2.78;85.50
59391;BME280;53405;57.012;40.984;2023-02-15T04:36:23;100284.06;;;-2.76;86.08
59391;BME280;53405;57.012;40.984;2023-02-15T04:39:13;100284.56;;;-2.85;85.17
59391;BME280;53405;57.012;40.984;2023-02-15T04:42:01;100302.19;;;-2.78;85.72
59391;BME280;53405;57.012;40.984;2023-02-15T04:44:49;100296.78;;;-2.73;87.21
59391;BME280;53405;57.012;40.984;2023-02-15T04:47:37;100302.38;;;-2.65;86.38
59391;BME280;53405;57.012;40.984;2023-02-15T04:50:24;100289.72;;;-2.85;85.58
59391;BME280;53405;57.012;40.984;2023-02-15T04:53:12;100291.06;;;-2.94;86.00
59391;BME280;53405;57.012;40.984;2023-02-15T04:56:00;100312.91;;;-2.85;86.54
59391;BME280;53405;57.012;40.984;2023-02-15T04:58:48;100312.91;;;-2.85;86.15
59391;BME280;53405;57.012;40.984;2023-02-15T05:01:35;100325.88;;;-2.87;87.01
59391;BME280;53405;57.012;40.984;2023-02-15T05:04:23;100325.56;;;-2.81;86.97
59391;BME280;53405;57.012;40.984;2023-02-15T05:07:11;100329.22;;;-2.85;86.67
59391;BME280;53405;57.012;40.984;2023-02-15T05:09:58;100332.88;;;-2.89;86.60
59391;BME280;53405;57.012;40.984;2023-02-15T05:12:46;100286.66;;;-3.24;86.78
59391;BME280;53405;57.012;40.984;2023-02-15T05:15:34;100334.56;;;-2.88;86.72
59391;BME280;53405;57.012;40.984;2023-02-15T05:18:22;100338.28;;;-2.94;85.89
59391;BME280;53405;57.012;40.984;2023-02-15T05:21:10;100351.50;;;-3.00;86.29
59391;BME280;53405;57.012;40.984;2023-02-15T05:23:57;100346.50;;;-3.03;86.24
59391;BME280;53405;57.012;40.984;2023-02-15T05:26:45;100344.63;;;-2.99;86.42
59391;BME280;53405;57.012;40.984;2023-02-15T05:29:53;100344.53;;;-2.98;86.09
59391;BME280;53405;57.012;40.984;2023-02-15T05:34:21;100358.16;;;-2.96;86.23
59391;BME280;53405;57.012;40.984;2023-02-15T05:37:30;100354.16;;;-3.01;85.92
59391;BME280;53405;57.012;40.984;2023-02-15T05:40:18;100361.06;;;-3.02;85.41
59391;BME280;53405;57.012;40.984;2023-02-15T05:43:06;100361.22;;;-3.05;84.96
59391;BME280;53405;57.012;40.984;2023-02-15T05:45:54;100362.75;;;-3.01;85.63
59391;BME280;53405;57.012;40.984;2023-02-15T05:48:42;100360.97;;;-3.00;85.20
59391;BME280;53405;57.012;40.984;2023-02-15T05:51:30;100357.75;;;-3.04;84.97
59391;BME280;53405;57.012;40.984;2023-02-15T05:54:17;100368.78;;;-3.02;85.75
59391;BME280;53405;57.012;40.984;2023-02-15T05:57:05;100370.38;;;-2.99;85.06
59391;BME280;53405;57.012;40.984;2023-02-15T05:59:53;100377.97;;;-2.96;84.72
59391;BME280;53405;57.012;40.984;2023-02-15T06:02:40;100379.53;;;-2.94;84.63
59391;BME280;53405;57.012;40.984;2023-02-15T06:05:28;100374.78;;;-3.01;84.45
59391;BME280;53405;57.012;40.984;2023-02-15T06:08:15;100364.69;;;-3.06;84.86
59391;BME280;53405;57.012;40.984;2023-02-15T06:11:04;100389.25;;;-2.99;84.92
59391;BME280;53405;57.012;40.984;2023-02-15T06:13:52;100386.91;;;-3.03;84.66
59391;BME280;53405;57.012;40.984;2023-02-15T06:16:39;100392.00;;;-3.02;84.55
59391;BME280;53405;57.012;40.984;2023-02-15T06:19:27;100393.59;;;-2.99;84.84
59391;BME280;53405;57.012;40.984;2023-02-15T06:22:16;100399.31;;;-2.94;84.03
59391;BME280;53405;57.012;40.984;2023-02-15T06:25:05;100399.06;;;-2.89;84.64
59391;BME280;53405;57.012;40.984;2023-02-15T06:27:53;100408.66;;;-2.92;83.44
59391;BME280;53405;57.012;40.984;2023-02-15T06:30:44;100417.03;;;-2.88;84.02
59391;BME280;53405;57.012;40.984;2023-02-15T06:33:32;100403.50;;;-2.92;83.92
59391;BME280;53405;57.012;40.984;2023-02-15T06:36:23;100423.94;;;-2.88;82.98
59391;BME280;53405;57.012;40.984;2023-02-15T06:39:10;100425.50;;;-2.86;83.24
59391;BME280;53405;57.012;40.984;2023-02-15T06:41:58;100422.94;;;-2.86;83.29
59391;BME280;53405;57.012;40.984;2023-02-15T06:44:45;100434.00;;;-2.84;83.08
59391;BME280;53405;57.012;40.984;2023-02-15T06:47:33;100429.41;;;-2.95;82.85
59391;BME280;53405;57.012;40.984;2023-02-15T06:50:21;100437.00;;;-2.92;83.25
59391;BME280;53405;57.012;40.984;2023-02-15T06:53:08;100418.19;;;-2.94;83.99
59391;BME280;53405;57.012;40.984;2023-02-15T06:56:04;100443.06;;;-2.77;83.28
59391;BME280;53405;57.012;40.984;2023-02-15T06:58:54;100442.34;;;-2.79;83.09
59391;BME280;53405;57.012;40.984;2023-02-15T07:01:41;100427.81;;;-2.97;82.95
59391;BME280;53405;57.012;40.984;2023-02-15T07:04:32;100432.75;;;-2.93;83.55
59391;BME280;53405;57.012;40.984;2023-02-15T07:07:20;100449.53;;;-2.85;83.93
59391;BME280;53405;57.012;40.984;2023-02-15T07:10:08;100457.34;;;-2.87;84.09
59391;BME280;53405;57.012;40.984;2023-02-15T07:12:55;100450.88;;;-2.78;83.69
59391;BME280;53405;57.012;40.984;2023-02-15T07:15:44;100463.63;;;-2.75;83.18
59391;BME280;53405;57.012;40.984;2023-02-15T07:18:32;100457.09;;;-2.82;82.28
59391;BME280;53405;57.012;40.984;2023-02-15T07:21:19;100467.50;;;-2.84;83.11
59391;BME280;53405;57.012;40.984;2023-02-15T07:24:07;100455.78;;;-2.89;82.10
59391;BME280;53405;57.012;40.984;2023-02-15T07:26:55;100477.56;;;-2.79;82.22
59391;BME280;53405;57.012;40.984;2023-02-15T07:29:42;100474.25;;;-2.81;82.00
59391;BME280;53405;57.012;40.984;2023-02-15T07:32:31;100478.75;;;-2.85;82.05
59391;BME280;53405;57.012;40.984;2023-02-15T07:35:20;100490.69;;;-2.84;82.13
59391;BME280;53405;57.012;40.984;2023-02-15T07:38:07;100464.22;;;-3.03;82.25
59391;BME280;53405;57.012;40.984;2023-02-15T07:41:03;100485.59;;;-3.01;82.16
59391;BME280;53405;57.012;40.984;2023-02-15T07:43:54;100497.66;;;-3.02;82.76
59391;BME280;53405;57.012;40.984;2023-02-15T07:46:42;100504.84;;;-2.91;83.24
59391;BME280;53405;57.012;40.984;2023-02-15T07:49:29;100500.44;;;-2.89;82.01
59391;BME280;53405;57.012;40.984;2023-02-15T07:52:17;100505.19;;;-2.81;83.61
59391;BME280;53405;57.012;40.984;2023-02-15T07:55:07;100500.22;;;-2.68;81.85
59391;BME280;53405;57.012;40.984;2023-02-15T07:57:56;100503.56;;;-2.66;81.83
59391;BME280;53405;57.012;40.984;2023-02-15T08:00:44;100503.97;;;-2.74;81.45
59391;BME280;53405;57.012;40.984;2023-02-15T08:03:43;100511.72;;;-2.74;81.68
59391;BME280;53405;57.012;40.984;2023-02-15T08:06:33;100515.38;;;-2.62;83.07
59391;BME280;53405;57.012;40.984;2023-02-15T08:09:21;100501.16;;;-2.69;80.23
59391;BME280;53405;57.012;40.984;2023-02-15T08:12:09;100524.72;;;-2.60;81.48
59391;BME280;53405;57.012;40.984;2023-02-15T08:14:57;100527.38;;;-2.45;82.73
59391;BME280;53405;57.012;40.984;2023-02-15T08:17:46;100527.16;;;-2.41;80.71
59391;BME280;53405;57.012;40.984;2023-02-15T08:20:33;100523.06;;;-2.45;80.50
59391;BME280;53405;57.012;40.984;2023-02-15T08:23:21;100542.53;;;-2.55;80.17
59391;BME280;53405;57.012;40.984;2023-02-15T08:26:09;100543.59;;;-2.59;80.74
59391;BME280;53405;57.012;40.984;2023-02-15T08:28:59;100536.16;;;-2.65;80.92
59391;BME280;53405;57.012;40.984;2023-02-15T08:31:48;100538.25;;;-2.56;81.41
59391;BME280;53405;57.012;40.984;2023-02-15T08:34:38;100539.53;;;-2.47;80.97
59391;BME280;53405;57.012;40.984;2023-02-15T08:37:26;100544.88;;;-2.34;80.45
59391;BME280;53405;57.012;40.984;2023-02-15T08:40:13;100550.06;;;-2.19;80.07
59391;BME280;53405;57.012;40.984;2023-02-15T08:43:01;100524.56;;;-2.25;80.26
59391;BME280;53405;57.012;40.984;2023-02-15T08:45:49;100531.41;;;-2.08;79.10
59391;BME280;53405;57.012;40.984;2023-02-15T08:48:37;100530.06;;;-2.15;78.14
59391;BME280;53405;57.012;40.984;2023-02-15T08:51:32;100546.91;;;-2.08;79.86
59391;BME280;53405;57.012;40.984;2023-02-15T08:54:20;100546.41;;;-1.98;79.38
59391;BME280;53405;57.012;40.984;2023-02-15T08:57:08;100535.31;;;-2.16;77.58
59391;BME280;53405;57.012;40.984;2023-02-15T08:59:57;100558.28;;;-2.12;78.10
59391;BME280;53405;57.012;40.984;2023-02-15T09:02:44;100547.22;;;-2.30;78.22
59391;BME280;53405;57.012;40.984;2023-02-15T09:05:32;100550.03;;;-2.34;78.87
59391;BME280;53405;57.012;40.984;2023-02-15T09:08:20;100557.53;;;-2.30;79.39
59391;BME280;53405;57.012;40.984;2023-02-15T09:11:10;100553.69;;;-2.39;78.34
59391;BME280;53405;57.012;40.984;2023-02-15T09:14:07;100562.00;;;-2.33;78.98
59391;BME280;53405;57.012;40.984;2023-02-15T09:16:56;100571.50;;;-2.34;79.16
59391;BME280;53405;57.012;40.984;2023-02-15T09:19:43;100551.25;;;-2.58;78.92
59391;BME280;53405;57.012;40.984;2023-02-15T09:22:31;100572.63;;;-2.56;79.39
59391;BME280;53405;57.012;40.984;2023-02-15T09:25:18;100552.97;;;-2.74;80.25
59391;BME280;53405;57.012;40.984;2023-02-15T09:28:06;100584.69;;;-2.56;80.73
59391;BME280;53405;57.012;40.984;2023-02-15T09:30:56;100583.25;;;-2.62;80.72
59391;BME280;53405;57.012;40.984;2023-02-15T09:33:45;100580.66;;;-2.62;80.54
59391;BME280;53405;57.012;40.984;2023-02-15T09:36:35;100585.59;;;-2.57;81.35
59391;BME280;53405;57.012;40.984;2023-02-15T09:39:24;100583.09;;;-2.59;81.37
59391;BME280;53405;57.012;40.984;2023-02-15T09:48:45;100603.81;;;-2.60;81.78
59391;BME280;53405;57.012;40.984;2023-02-15T09:51:42;100592.78;;;-2.46;82.08
59391;BME280;53405;57.012;40.984;2023-02-15T10:00:40;100601.16;;;-2.59;80.94
59391;BME280;53405;57.012;40.984;2023-02-15T10:07:02;100614.50;;;-2.50;81.50
59391;BME280;53405;57.012;40.984;2023-02-15T10:19:12;100620.16;;;-2.77;81.35
59391;BME280;53405;57.012;40.984;2023-02-15T10:25:05;100625.00;;;-2.88;81.57
59391;BME280;53405;57.012;40.984;2023-02-15T10:28:05;100629.91;;;-2.84;82.20
59391;BME280;53405;57.012;40.984;2023-02-15T10:34:35;100630.16;;;-2.71;81.73
59391;BME280;53405;57.012;40.984;2023-02-15T10:56:00;100640.31;;;-2.50;82.91
59391;BME280;53405;57.012;40.984;2023-02-15T11:02:37;100655.06;;;-2.54;82.81
59391;BME280;53405;57.012;40.984;2023-02-15T11:08:50;100655.38;;;-2.60;83.26
59391;BME280;53405;57.012;40.984;2023-02-15T11:11:40;100659.94;;;-2.65;83.07
59391;BME280;53405;57.012;40.984;2023-02-15T11:17:30;100671.63;;;-2.58;84.32
59391;BME280;53405;57.012;40.984;2023-02-15T11:23:17;100671.56;;;-2.57;84.13
59391;BME280;53405;57.012;40.984;2023-02-15T11:26:14;100681.56;;;-2.50;83.70
59391;BME280;53405;57.012;40.984;2023-02-15T11:32:33;100668.22;;;-2.76;83.80
59391;BME280;53405;57.012;40.984;2023-02-15T11:35:46;100675.47;;;-2.49;84.13
59391;BME280;53405;57.012;40.984;2023-02-15T11:38:36;100685.41;;;-2.42;83.30
59391;BME280;53405;57.012;40.984;2023-02-15T11:41:29;100693.00;;;-2.39;83.04
59391;BME280;53405;57.012;40.984;2023-02-15T11:44:26;100687.25;;;-2.44;82.91
59391;BME280;53405;57.012;40.984;2023-02-15T11:47:16;100688.00;;;-2.42;83.47
59391;BME280;53405;57.012;40.984;2023-02-15T11:50:22;100690.50;;;-2.40;82.14
59391;BME280;53405;57.012;40.984;2023-02-15T11:53:18;100711.50;;;-2.30;82.94
59391;BME280;53405;57.012;40.984;2023-02-15T11:56:21;100699.09;;;-2.40;81.91
59391;BME280;53405;57.012;40.984;2023-02-15T11:59:14;100710.16;;;-2.38;81.97
59391;BME280;53405;57.012;40.984;2023-02-15T12:02:24;100704.56;;;-2.46;80.84
59391;BME280;53405;57.012;40.984;2023-02-15T12:05:20;100716.00;;;-2.51;82.29
59391;BME280;53405;57.012;40.984;2023-02-15T12:08:20;100706.66;;;-2.54;81.38
59391;BME280;53405;57.012;40.984;2023-02-15T12:11:11;100728.91;;;-2.51;81.85
59391;BME280;53405;57.012;40.984;2023-02-15T12:14:02;100726.03;;;-2.45;81.98
59391;BME280;53405;57.012;40.984;2023-02-15T12:16:54;100725.34;;;-2.49;81.58
59391;BME280;53405;57.012;40.984;2023-02-15T12:19:43;100720.63;;;-2.58;81.53
59391;BME280;53405;57.012;40.984;2023-02-15T12:22:34;100738.84;;;-2.61;81.20
59391;BME280;53405;57.012;40.984;2023-02-15T12:25:39;100712.13;;;-2.78;81.97
59391;BME280;53405;57.012;40.984;2023-02-15T12:28:41;100736.03;;;-2.57;81.81
59391;BME280;53405;57.012;40.984;2023-02-15T12:31:36;100734.44;;;-2.42;82.38
59391;BME280;53405;57.012;40.984;2023-02-15T12:34:46;100727.94;;;-2.49;81.58
59391;BME280;53405;57.012;40.984;2023-02-15T12:37:35;100746.34;;;-2.39;81.22
59391;BME280;53405;57.012;40.984;2023-02-15T12:40:28;100754.47;;;-2.47;81.40
59391;BME280;53405;57.012;40.984;2023-02-15T12:43:30;100750.69;;;-2.40;81.63
59391;BME280;53405;57.012;40.984;2023-02-15T12:46:24;100746.97;;;-2.34;82.15
59391;BME280;53405;57.012;40.984;2023-02-15T12:49:20;100754.69;;;-2.34;80.56
59391;BME280;53405;57.012;40.984;2023-02-15T12:55:31;100763.66;;;-2.41;80.80
59391;BME280;53405;57.012;40.984;2023-02-15T12:58:21;100759.09;;;-2.36;82.05
59391;BME280;53405;57.012;40.984;2023-02-15T13:01:18;100744.53;;;-2.37;80.58
59391;BME280;53405;57.012;40.984;2023-02-15T13:07:12;100773.44;;;-2.48;80.34
59391;BME280;53405;57.012;40.984;2023-02-15T13:10:00;100772.75;;;-2.51;80.84
59391;BME280;53405;57.012;40.984;2023-02-15T13:12:49;100773.19;;;-2.43;80.71
59391;BME280;53405;57.012;40.984;2023-02-15T13:15:46;100776.72;;;-2.44;80.32
59391;BME280;53405;57.012;40.984;2023-02-15T13:18:38;100776.56;;;-2.41;80.66
59391;BME280;53405;57.012;40.984;2023-02-15T13:21:31;100778.38;;;-2.43;81.23
59391;BME280;53405;57.012;40.984;2023-02-15T13:24:24;100786.56;;;-2.35;80.56
59391;BME280;53405;57.012;40.984;2023-02-15T13:27:17;100791.78;;;-2.37;80.41
59391;BME280;53405;57.012;40.984;2023-02-15T13:30:26;100785.88;;;-2.39;80.45
59391;BME280;53405;57.012;40.984;2023-02-15T13:36:12;100796.13;;;-2.37;80.20
59391;BME280;53405;57.012;40.984;2023-02-15T13:42:21;100806.53;;;-2.39;79.68
59391;BME280;53405;57.012;40.984;2023-02-15T13:45:38;100808.66;;;-2.47;79.56
59391;BME280;53405;57.012;40.984;2023-02-15T13:48:34;100812.13;;;-2.48;80.52
59391;BME280;53405;57.012;40.984;2023-02-15T13:54:53;100824.13;;;-2.47;79.15
59391;BME280;53405;57.012;40.984;2023-02-15T14:01:11;100786.81;;;-2.76;78.63
59391;BME280;53405;57.012;40.984;2023-02-15T14:17:26;100837.16;;;-2.86;77.57
59391;BME280;53405;57.012;40.984;2023-02-15T14:29:40;100849.97;;;-2.85;77.61
59391;BME280;53405;57.012;40.984;2023-02-15T14:32:36;100850.72;;;-2.83;77.79
59391;BME280;53405;57.012;40.984;2023-02-15T14:35:28;100849.19;;;-2.87;77.04
59391;BME280;53405;57.012;40.984;2023-02-15T14:38:51;100855.97;;;-2.84;77.64
59391;BME280;53405;57.012;40.984;2023-02-15T14:41:42;100847.75;;;-2.93;77.86
59391;BME280;53405;57.012;40.984;2023-02-15T14:44:40;100869.00;;;-2.87;77.47
59391;BME280;53405;57.012;40.984;2023-02-15T14:47:40;100863.06;;;-2.89;77.25
59391;BME280;53405;57.012;40.984;2023-02-15T14:53:22;100873.09;;;-2.83;77.42
59391;BME280;53405;57.012;40.984;2023-02-15T15:02:31;100863.50;;;-2.99;76.83
59391;BME280;53405;57.012;40.984;2023-02-15T15:05:35;100871.84;;;-2.94;76.72
59391;BME280;53405;57.012;40.984;2023-02-15T15:08:37;100872.97;;;-2.99;76.81
59391;BME280;53405;57.012;40.984;2023-02-15T15:14:40;100881.47;;;-2.97;76.22
59391;BME280;53405;57.012;40.984;2023-02-15T15:26:34;100898.28;;;-2.88;75.95
59391;BME280;53405;57.012;40.984;2023-02-15T15:29:39;100901.13;;;-2.95;77.40
59391;BME280;53405;57.012;40.984;2023-02-15T15:32:29;100903.91;;;-2.80;76.24
59391;BME280;53405;57.012;40.984;2023-02-15T15:42:50;100908.00;;;-2.95;76.90
59391;BME280;53405;57.012;40.984;2023-02-15T15:49:10;100899.56;;;-2.99;75.89
59391;BME280;53405;57.012;40.984;2023-02-15T15:52:00;100915.03;;;-2.99;76.45
59391;BME280;53405;57.012;40.984;2023-02-15T15:54:52;100920.75;;;-2.92;76.53
59391;BME280;53405;57.012;40.984;2023-02-15T15:57:44;100922.22;;;-2.86;76.88
59391;BME280;53405;57.012;40.984;2023-02-15T16:00:55;100924.19;;;-2.92;74.72
59391;BME280;53405;57.012;40.984;2023-02-15T16:03:50;100902.06;;;-3.16;74.32
59391;BME280;53405;57.012;40.984;2023-02-15T16:06:39;100920.09;;;-3.16;74.43
59391;BME280;53405;57.012;40.984;2023-02-15T16:09:27;100915.84;;;-3.17;74.86
59391;BME280;53405;57.012;40.984;2023-02-15T16:12:17;100922.41;;;-3.10;75.53
59391;BME280;53405;57.012;40.984;2023-02-15T16:15:17;100926.88;;;-3.14;74.83
59391;BME280;53405;57.012;40.984;2023-02-15T16:18:13;100927.34;;;-3.24;74.29
59391;BME280;53405;57.012;40.984;2023-02-15T16:21:01;100939.69;;;-3.33;74.76
59391;BME280;53405;57.012;40.984;2023-02-15T16:33:15;100923.34;;;-3.52;76.29
59391;BME280;53405;57.012;40.984;2023-02-15T16:36:04;100934.16;;;-3.44;75.58
59391;BME280;53405;57.012;40.984;2023-02-15T16:41:44;100931.84;;;-3.50;75.83
59391;BME280;53405;57.012;40.984;2023-02-15T16:44:36;100939.50;;;-3.49;76.01
59391;BME280;53405;57.012;40.984;2023-02-15T16:47:26;100901.66;;;-3.67;75.92
59391;BME280;53405;57.012;40.984;2023-02-15T16:50:36;100933.66;;;-3.52;76.66
59391;BME280;53405;57.012;40.984;2023-02-15T16:53:28;100926.06;;;-3.55;76.87
59391;BME280;53405;57.012;40.984;2023-02-15T16:56:25;100935.78;;;-3.41;78.86
59391;BME280;53405;57.012;40.984;2023-02-15T17:02:19;100939.63;;;-3.31;76.71
59391;BME280;53405;57.012;40.984;2023-02-15T17:08:34;100943.44;;;-3.19;76.70
59391;BME280;53405;57.012;40.984;2023-02-15T17:11:35;100937.84;;;-3.29;76.88
59391;BME280;53405;57.012;40.984;2023-02-15T17:14:30;100946.13;;;-3.22;76.46
59391;BME280;53405;57.012;40.984;2023-02-15T17:17:18;100948.22;;;-3.31;76.28
59391;BME280;53405;57.012;40.984;2023-02-15T17:20:13;100942.88;;;-3.26;77.20
59391;BME280;53405;57.012;40.984;2023-02-15T17:23:01;100950.47;;;-3.23;76.96
59391;BME280;53405;57.012;40.984;2023-02-15T17:25:50;100939.63;;;-3.31;76.07
59391;BME280;53405;57.012;40.984;2023-02-15T17:28:45;100929.88;;;-3.43;76.53
59391;BME280;53405;57.012;40.984;2023-02-15T17:31:33;100942.25;;;-3.33;76.23
59391;BME280;53405;57.012;40.984;2023-02-15T17:34:50;100958.66;;;-3.34;75.68
59391;BME280;53405;57.012;40.984;2023-02-15T17:37:47;100958.00;;;-3.39;76.16
59391;BME280;53405;57.012;40.984;2023-02-15T17:40:36;100948.03;;;-3.47;76.58
59391;BME280;53405;57.012;40.984;2023-02-15T17:43:25;100964.06;;;-3.40;76.92
59391;BME280;53405;57.012;40.984;2023-02-15T17:46:13;100961.66;;;-3.45;76.89
59391;BME280;53405;57.012;40.984;2023-02-15T17:49:03;100954.69;;;-3.42;77.29
59391;BME280;53405;57.012;40.984;2023-02-15T17:51:51;100956.25;;;-3.38;77.75
59391;BME280;53405;57.012;40.984;2023-02-15T17:54:39;100960.66;;;-3.40;76.96